sensor_id;sensor_type;location;lat;lon;timestamp;pressure;altitude;pressure_sealevel;temperature;humidity
70133;BME280;57495;49.922;7.966;2022-09-29T00:01:41;98444.69;;;7.59;87.05
70133;BME280;57495;49.922;7.966;2022-09-29T00:03:43;98453.34;;;7.61;87.01
70133;BME280;57495;49.922;7.966;2022-09-29T00:05:51;98445.53;;;7.59;86.33
70133;BME280;57495;49.922;7.966;2022-09-29T00:07:52;98460.28;;;7.45;86.15
70133;BME280;57495;49.922;7.966;2022-09-29T00:09:54;98452.66;;;7.50;85.88
70133;BME280;57495;49.922;7.966;2022-09-29T00:11:55;98452.66;;;7.50;86.08
70133;BME280;57495;49.922;7.966;2022-09-29T00:13:57;98455.97;;;7.52;86.00
70133;BME280;57495;49.922;7.966;2022-09-29T00:16:00;98453.97;;;7.54;86.90
70133;BME280;57495;49.922;7.966;2022-09-29T00:18:01;98459.44;;;7.45;87.27
70133;BME280;57495;49.922;7.966;2022-09-29T00:20:04;98459.97;;;7.48;86.44
70133;BME280;57495;49.922;7.966;2022-09-29T00:22:07;98450.47;;;7.46;86.64
70133;BME280;57495;49.922;7.966;2022-09-29T00:24:09;98445.34;;;7.44;86.73
70133;BME280;57495;49.922;7.966;2022-09-29T00:26:12;98446.16;;;7.45;86.89
70133;BME280;57495;49.922;7.966;2022-09-29T00:28:13;98453.31;;;7.44;87.77
70133;BME280;57495;49.922;7.966;2022-09-29T00:30:15;98441.00;;;7.43;88.06
70133;BME280;57495;49.922;7.966;2022-09-29T00:32:16;98450.16;;;7.49;87.69
70133;BME280;57495;49.922;7.966;2022-09-29T00:34:18;98450.97;;;7.41;88.12
70133;BME280;57495;49.922;7.966;2022-09-29T00:36:20;98447.31;;;7.42;88.32
70133;BME280;57495;49.922;7.966;2022-09-29T00:38:24;98446.81;;;7.47;88.66
70133;BME280;57495;49.922;7.966;2022-09-29T00:40:25;98449.31;;;7.48;88.53
70133;BME280;57495;49.922;7.966;2022-09-29T00:42:27;98451.31;;;7.46;88.58
70133;BME280;57495;49.922;7.966;2022-09-29T00:44:53;98452.50;;;7.52;89.00
70133;BME280;57495;49.922;7.966;2022-09-29T00:46:58;98452.34;;;7.53;89.03
70133;BME280;57495;49.922;7.966;2022-09-29T00:49:04;98451.97;;;7.48;89.39
70133;BME280;57495;49.922;7.966;2022-09-29T00:51:08;98446.00;;;7.54;89.14
70133;BME280;57495;49.922;7.966;2022-09-29T00:53:11;98445.34;;;7.52;88.54
70133;BME280;57495;49.922;7.966;2022-09-29T00:55:18;98446.66;;;7.57;88.49
70133;BME280;57495;49.922;7.966;2022-09-29T00:57:27;98451.66;;;7.51;88.25
70133;BME280;57495;49.922;7.966;2022-09-29T00:59:32;98456.63;;;7.46;88.70
70133;BME280;57495;49.922;7.966;2022-09-29T01:01:37;98446.31;;;7.43;88.86
70133;BME280;57495;49.922;7.966;2022-09-29T01:03:41;98448.31;;;7.41;88.92
70133;BME280;57495;49.922;7.966;2022-09-29T01:05:46;98446.31;;;7.43;89.21
70133;BME280;57495;49.922;7.966;2022-09-29T01:07:50;98443.13;;;7.31;88.20
70133;BME280;57495;49.922;7.966;2022-09-29T01:09:54;98446.69;;;7.06;89.23
70133;BME280;57495;49.922;7.966;2022-09-29T01:11:58;98445.16;;;7.03;89.49
70133;BME280;57495;49.922;7.966;2022-09-29T01:14:02;98442.41;;;7.13;88.97
70133;BME280;57495;49.922;7.966;2022-09-29T01:16:05;98436.94;;;7.14;88.13
70133;BME280;57495;49.922;7.966;2022-09-29T01:18:06;98430.91;;;7.12;87.44
70133;BME280;57495;49.922;7.966;2022-09-29T01:20:11;98433.91;;;7.09;87.61
70133;BME280;57495;49.922;7.966;2022-09-29T01:22:27;98427.59;;;7.10;88.56
70133;BME280;57495;49.922;7.966;2022-09-29T01:24:54;98435.25;;;7.13;88.24
70133;BME280;57495;49.922;7.966;2022-09-29T01:27:11;98430.72;;;6.71;89.41
70133;BME280;57495;49.922;7.966;2022-09-29T01:29:48;98430.16;;;6.86;89.02
70133;BME280;57495;49.922;7.966;2022-09-29T01:31:57;98434.03;;;7.00;89.13
70133;BME280;57495;49.922;7.966;2022-09-29T01:34:05;98432.16;;;6.92;89.14
70133;BME280;57495;49.922;7.966;2022-09-29T01:36:13;98427.34;;;6.95;88.48
70133;BME280;57495;49.922;7.966;2022-09-29T01:38:41;98430.16;;;6.94;88.84
70133;BME280;57495;49.922;7.966;2022-09-29T01:40:50;98430.81;;;6.88;89.01
70133;BME280;57495;49.922;7.966;2022-09-29T01:43:02;98433.44;;;6.80;88.33
70133;BME280;57495;49.922;7.966;2022-09-29T01:45:11;98439.72;;;6.78;88.06
70133;BME280;57495;49.922;7.966;2022-09-29T01:47:19;98431.97;;;6.85;89.02
70133;BME280;57495;49.922;7.966;2022-09-29T01:49:26;98440.41;;;6.81;88.28
70133;BME280;57495;49.922;7.966;2022-09-29T01:51:34;98436.56;;;6.75;90.04
70133;BME280;57495;49.922;7.966;2022-09-29T01:53:41;98433.44;;;6.80;87.70
70133;BME280;57495;49.922;7.966;2022-09-29T01:55:48;98446.34;;;6.74;86.48
70133;BME280;57495;49.922;7.966;2022-09-29T01:57:53;98443.03;;;6.72;86.10
70133;BME280;57495;49.922;7.966;2022-09-29T02:00:03;98445.69;;;6.46;88.89
70133;BME280;57495;49.922;7.966;2022-09-29T02:02:10;98439.31;;;6.57;88.75
70133;BME280;57495;49.922;7.966;2022-09-29T02:04:17;98449.91;;;6.57;89.30
70133;BME280;57495;49.922;7.966;2022-09-29T02:06:23;98445.59;;;6.56;88.62
70133;BME280;57495;49.922;7.966;2022-09-29T02:08:28;98443.97;;;6.63;89.25
70133;BME280;57495;49.922;7.966;2022-09-29T02:10:36;98446.28;;;6.66;89.70
70133;BME280;57495;49.922;7.966;2022-09-29T02:12:42;98439.03;;;6.68;89.68
70133;BME280;57495;49.922;7.966;2022-09-29T02:14:46;98435.22;;;6.71;88.90
70133;BME280;57495;49.922;7.966;2022-09-29T02:16:53;98442.97;;;6.64;89.26
70133;BME280;57495;49.922;7.966;2022-09-29T02:19:00;98441.47;;;6.62;89.84
70133;BME280;57495;49.922;7.966;2022-09-29T02:21:05;98449.66;;;6.68;89.93
70133;BME280;57495;49.922;7.966;2022-09-29T02:23:06;98450.00;;;6.73;89.59
70133;BME280;57495;49.922;7.966;2022-09-29T02:25:10;98450.63;;;6.67;89.05
70133;BME280;57495;49.922;7.966;2022-09-29T02:27:12;98443.63;;;6.66;88.25
70133;BME280;57495;49.922;7.966;2022-09-29T02:29:14;98449.31;;;6.71;88.74
70133;BME280;57495;49.922;7.966;2022-09-29T02:31:17;98443.34;;;6.69;89.05
70133;BME280;57495;49.922;7.966;2022-09-29T02:33:20;98447.53;;;6.72;88.36
70133;BME280;57495;49.922;7.966;2022-09-29T02:35:26;98441.34;;;6.71;89.10
70133;BME280;57495;49.922;7.966;2022-09-29T02:37:44;98453.97;;;6.69;88.09
70133;BME280;57495;49.922;7.966;2022-09-29T02:39:54;98445.28;;;6.59;87.17
70133;BME280;57495;49.922;7.966;2022-09-29T02:42:06;98448.53;;;6.53;88.08
70133;BME280;57495;49.922;7.966;2022-09-29T02:44:32;98446.91;;;6.52;88.03
70133;BME280;57495;49.922;7.966;2022-09-29T02:46:47;98453.41;;;6.31;93.45
70133;BME280;57495;49.922;7.966;2022-09-29T02:49:02;98453.00;;;6.26;95.58
70133;BME280;57495;49.922;7.966;2022-09-29T02:51:12;98455.94;;;6.41;93.27
70133;BME280;57495;49.922;7.966;2022-09-29T02:53:28;98457.19;;;6.55;91.83
70133;BME280;57495;49.922;7.966;2022-09-29T02:55:38;98459.69;;;6.56;91.42
70133;BME280;57495;49.922;7.966;2022-09-29T02:57:49;98458.63;;;6.49;90.73
70133;BME280;57495;49.922;7.966;2022-09-29T02:59:56;98458.13;;;6.46;90.40
70133;BME280;57495;49.922;7.966;2022-09-29T03:02:04;98459.56;;;6.40;90.14
70133;BME280;57495;49.922;7.966;2022-09-29T03:04:06;98463.00;;;6.32;90.50
70133;BME280;57495;49.922;7.966;2022-09-29T03:06:08;98460.59;;;6.21;90.46
70133;BME280;57495;49.922;7.966;2022-09-29T03:08:11;98458.84;;;6.30;90.38
70133;BME280;57495;49.922;7.966;2022-09-29T03:10:16;98460.50;;;6.31;91.01
70133;BME280;57495;49.922;7.966;2022-09-29T03:12:18;98457.41;;;6.35;90.25
70133;BME280;57495;49.922;7.966;2022-09-29T03:14:19;98460.06;;;6.35;90.26
70133;BME280;57495;49.922;7.966;2022-09-29T03:16:21;98456.88;;;6.32;90.81
70133;BME280;57495;49.922;7.966;2022-09-29T03:18:22;98451.41;;;6.33;91.25
70133;BME280;57495;49.922;7.966;2022-09-29T03:20:24;98446.78;;;6.35;91.74
70133;BME280;57495;49.922;7.966;2022-09-29T03:22:26;98448.81;;;6.42;91.60
70133;BME280;57495;49.922;7.966;2022-09-29T03:24:27;98463.13;;;6.49;91.84
70133;BME280;57495;49.922;7.966;2022-09-29T03:26:30;98456.31;;;6.46;92.35
70133;BME280;57495;49.922;7.966;2022-09-29T03:28:32;98452.81;;;6.46;93.21
70133;BME280;57495;49.922;7.966;2022-09-29T03:30:34;98456.78;;;6.42;93.57
70133;BME280;57495;49.922;7.966;2022-09-29T03:32:35;98460.44;;;6.41;93.93
70133;BME280;57495;49.922;7.966;2022-09-29T03:34:37;98458.28;;;6.44;94.07
70133;BME280;57495;49.922;7.966;2022-09-29T03:36:38;98457.16;;;6.47;95.03
70133;BME280;57495;49.922;7.966;2022-09-29T03:38:40;98452.13;;;6.44;95.64
70133;BME280;57495;49.922;7.966;2022-09-29T03:40:43;98453.50;;;6.48;95.74
70133;BME280;57495;49.922;7.966;2022-09-29T03:42:46;98455.53;;;6.54;95.34
70133;BME280;57495;49.922;7.966;2022-09-29T03:44:47;98447.09;;;6.58;94.90
70133;BME280;57495;49.922;7.966;2022-09-29T03:46:48;98453.84;;;6.53;94.05
70133;BME280;57495;49.922;7.966;2022-09-29T03:48:50;98452.81;;;6.46;93.51
70133;BME280;57495;49.922;7.966;2022-09-29T03:50:51;98452.50;;;6.49;92.78
70133;BME280;57495;49.922;7.966;2022-09-29T03:52:54;98452.63;;;6.39;92.22
70133;BME280;57495;49.922;7.966;2022-09-29T03:54:55;98456.72;;;6.33;94.33
70133;BME280;57495;49.922;7.966;2022-09-29T03:56:57;98459.91;;;6.19;94.04
70133;BME280;57495;49.922;7.966;2022-09-29T03:59:00;98457.16;;;6.29;92.92
70133;BME280;57495;49.922;7.966;2022-09-29T04:01:03;98465.22;;;6.19;92.26
70133;BME280;57495;49.922;7.966;2022-09-29T04:03:04;98469.56;;;6.20;91.22
70133;BME280;57495;49.922;7.966;2022-09-29T04:05:06;98468.03;;;6.17;90.23
70133;BME280;57495;49.922;7.966;2022-09-29T04:07:08;98481.16;;;6.19;90.96
70133;BME280;57495;49.922;7.966;2022-09-29T04:09:09;98478.50;;;6.19;90.61
70133;BME280;57495;49.922;7.966;2022-09-29T04:11:11;98480.31;;;6.18;89.38
70133;BME280;57495;49.922;7.966;2022-09-29T04:13:12;98486.41;;;6.11;89.12
70133;BME280;57495;49.922;7.966;2022-09-29T04:15:15;98477.19;;;6.05;88.86
70133;BME280;57495;49.922;7.966;2022-09-29T04:17:17;98478.22;;;6.04;89.94
70133;BME280;57495;49.922;7.966;2022-09-29T04:19:18;98472.91;;;6.04;90.74
70133;BME280;57495;49.922;7.966;2022-09-29T04:21:20;98487.47;;;6.00;89.86
70133;BME280;57495;49.922;7.966;2022-09-29T04:23:21;98477.81;;;5.99;89.85
70133;BME280;57495;49.922;7.966;2022-09-29T04:25:23;98492.50;;;5.93;90.35
70133;BME280;57495;49.922;7.966;2022-09-29T04:27:24;98494.00;;;5.78;93.40
70133;BME280;57495;49.922;7.966;2022-09-29T04:29:26;98491.28;;;5.42;95.35
70133;BME280;57495;49.922;7.966;2022-09-29T04:31:28;98505.19;;;5.26;97.10
70133;BME280;57495;49.922;7.966;2022-09-29T04:33:30;98498.59;;;5.02;98.90
70133;BME280;57495;49.922;7.966;2022-09-29T04:35:32;98495.47;;;5.45;96.79
70133;BME280;57495;49.922;7.966;2022-09-29T04:37:33;98501.13;;;5.59;94.54
70133;BME280;57495;49.922;7.966;2022-09-29T04:39:35;98499.28;;;5.60;93.18
70133;BME280;57495;49.922;7.966;2022-09-29T04:41:36;98494.53;;;5.64;92.38
70133;BME280;57495;49.922;7.966;2022-09-29T04:43:38;98490.28;;;5.71;92.00
70133;BME280;57495;49.922;7.966;2022-09-29T04:45:40;98490.00;;;5.74;91.77
70133;BME280;57495;49.922;7.966;2022-09-29T04:47:43;98489.81;;;5.75;91.53
70133;BME280;57495;49.922;7.966;2022-09-29T04:49:44;98484.00;;;5.72;90.56
70133;BME280;57495;49.922;7.966;2022-09-29T04:51:46;98485.13;;;5.69;90.86
70133;BME280;57495;49.922;7.966;2022-09-29T04:53:47;98479.06;;;5.77;91.45
70133;BME280;57495;49.922;7.966;2022-09-29T04:55:48;98484.22;;;5.78;90.83
70133;BME280;57495;49.922;7.966;2022-09-29T04:57:50;98484.09;;;5.80;92.18
70133;BME280;57495;49.922;7.966;2022-09-29T04:59:52;98483.47;;;5.86;92.68
70133;BME280;57495;49.922;7.966;2022-09-29T05:01:53;98488.72;;;5.78;93.53
70133;BME280;57495;49.922;7.966;2022-09-29T05:03:56;98490.22;;;5.80;92.91
70133;BME280;57495;49.922;7.966;2022-09-29T05:05:58;98494.69;;;5.80;92.86
70133;BME280;57495;49.922;7.966;2022-09-29T05:08:02;98487.41;;;5.82;92.58
70133;BME280;57495;49.922;7.966;2022-09-29T05:10:04;98492.88;;;5.80;91.91
70133;BME280;57495;49.922;7.966;2022-09-29T05:12:05;98495.66;;;5.79;91.27
70133;BME280;57495;49.922;7.966;2022-09-29T05:14:07;98496.81;;;5.76;92.11
70133;BME280;57495;49.922;7.966;2022-09-29T05:16:08;98496.41;;;5.71;91.41
70133;BME280;57495;49.922;7.966;2022-09-29T05:18:10;98499.16;;;5.61;91.48
70133;BME280;57495;49.922;7.966;2022-09-29T05:20:13;98492.16;;;5.60;90.92
70133;BME280;57495;49.922;7.966;2022-09-29T05:22:15;98503.47;;;5.35;92.06
70133;BME280;57495;49.922;7.966;2022-09-29T05:24:23;98500.31;;;5.21;92.58
70133;BME280;57495;49.922;7.966;2022-09-29T05:26:24;98505.44;;;4.95;94.87
70133;BME280;57495;49.922;7.966;2022-09-29T05:28:26;98516.53;;;4.71;96.98
70133;BME280;57495;49.922;7.966;2022-09-29T05:30:27;98528.41;;;4.48;99.23
70133;BME280;57495;49.922;7.966;2022-09-29T05:32:29;98520.06;;;4.52;100.00
70133;BME280;57495;49.922;7.966;2022-09-29T05:34:30;98524.53;;;4.52;100.00
70133;BME280;57495;49.922;7.966;2022-09-29T05:36:33;98522.53;;;4.73;100.00
70133;BME280;57495;49.922;7.966;2022-09-29T05:38:35;98525.53;;;4.98;98.61
70133;BME280;57495;49.922;7.966;2022-09-29T05:40:37;98522.41;;;5.12;96.15
70133;BME280;57495;49.922;7.966;2022-09-29T05:42:38;98521.66;;;5.20;94.72
70133;BME280;57495;49.922;7.966;2022-09-29T05:44:40;98532.94;;;5.32;93.56
70133;BME280;57495;49.922;7.966;2022-09-29T05:46:42;98537.91;;;5.35;93.41
70133;BME280;57495;49.922;7.966;2022-09-29T05:48:44;98535.59;;;5.32;94.32
70133;BME280;57495;49.922;7.966;2022-09-29T05:50:45;98532.94;;;5.32;93.85
70133;BME280;57495;49.922;7.966;2022-09-29T05:52:48;98538.97;;;5.14;95.24
70133;BME280;57495;49.922;7.966;2022-09-29T05:54:52;98542.84;;;4.82;97.78
70133;BME280;57495;49.922;7.966;2022-09-29T05:56:53;98542.22;;;5.08;97.53
70133;BME280;57495;49.922;7.966;2022-09-29T05:58:55;98539.38;;;5.19;97.23
70133;BME280;57495;49.922;7.966;2022-09-29T06:00:56;98545.44;;;5.39;96.38
70133;BME280;57495;49.922;7.966;2022-09-29T06:02:58;98542.75;;;5.49;95.53
70133;BME280;57495;49.922;7.966;2022-09-29T06:05:00;98543.72;;;5.20;96.85
70133;BME280;57495;49.922;7.966;2022-09-29T06:07:01;98544.78;;;5.00;98.69
70133;BME280;57495;49.922;7.966;2022-09-29T06:09:05;98540.34;;;4.81;100.00
70133;BME280;57495;49.922;7.966;2022-09-29T06:11:09;98543.13;;;4.89;100.00
70133;BME280;57495;49.922;7.966;2022-09-29T06:13:11;98538.06;;;4.96;100.00
70133;BME280;57495;49.922;7.966;2022-09-29T06:15:12;98535.81;;;5.01;100.00
70133;BME280;57495;49.922;7.966;2022-09-29T06:17:14;98540.47;;;5.27;99.30
70133;BME280;57495;49.922;7.966;2022-09-29T06:19:16;98538.81;;;5.26;99.74
70133;BME280;57495;49.922;7.966;2022-09-29T06:21:18;98540.56;;;5.07;100.00
70133;BME280;57495;49.922;7.966;2022-09-29T06:23:20;98548.66;;;4.96;100.00
70133;BME280;57495;49.922;7.966;2022-09-29T06:25:23;98548.19;;;4.63;100.00
70133;BME280;57495;49.922;7.966;2022-09-29T06:27:25;98545.78;;;4.70;100.00
70133;BME280;57495;49.922;7.966;2022-09-29T06:29:26;98550.00;;;4.72;100.00
70133;BME280;57495;49.922;7.966;2022-09-29T06:31:29;98549.94;;;4.92;100.00
70133;BME280;57495;49.922;7.966;2022-09-29T06:33:33;98558.00;;;5.00;100.00
70133;BME280;57495;49.922;7.966;2022-09-29T06:35:34;98548.63;;;5.15;100.00
70133;BME280;57495;49.922;7.966;2022-09-29T06:37:53;98548.25;;;5.38;100.00
70133;BME280;57495;49.922;7.966;2022-09-29T06:39:55;98557.69;;;5.50;100.00
70133;BME280;57495;49.922;7.966;2022-09-29T06:41:58;98561.28;;;5.77;100.00
70133;BME280;57495;49.922;7.966;2022-09-29T06:44:00;98549.91;;;5.94;99.44
70133;BME280;57495;49.922;7.966;2022-09-29T06:46:02;98554.88;;;6.07;98.30
70133;BME280;57495;49.922;7.966;2022-09-29T06:48:04;98558.75;;;6.13;97.26
70133;BME280;57495;49.922;7.966;2022-09-29T06:50:06;98554.09;;;6.15;96.15
70133;BME280;57495;49.922;7.966;2022-09-29T06:52:09;98562.06;;;6.15;95.46
70133;BME280;57495;49.922;7.966;2022-09-29T06:54:10;98563.13;;;6.22;95.68
70133;BME280;57495;49.922;7.966;2022-09-29T06:56:12;98560.09;;;6.17;95.86
70133;BME280;57495;49.922;7.966;2022-09-29T06:58:15;98565.63;;;6.24;96.00
70133;BME280;57495;49.922;7.966;2022-09-29T07:00:16;98564.13;;;5.93;96.97
70133;BME280;57495;49.922;7.966;2022-09-29T07:02:18;98559.84;;;6.10;97.19
70133;BME280;57495;49.922;7.966;2022-09-29T07:04:20;98560.91;;;5.99;97.95
70133;BME280;57495;49.922;7.966;2022-09-29T07:06:21;98569.66;;;6.10;98.14
70133;BME280;57495;49.922;7.966;2022-09-29T07:08:23;98564.09;;;6.21;97.74
70133;BME280;57495;49.922;7.966;2022-09-29T07:10:24;98567.31;;;6.43;97.43
70133;BME280;57495;49.922;7.966;2022-09-29T07:12:26;98573.44;;;6.43;97.61
70133;BME280;57495;49.922;7.966;2022-09-29T07:14:29;98571.31;;;6.47;97.82
70133;BME280;57495;49.922;7.966;2022-09-29T07:16:30;98573.44;;;6.61;96.92
70133;BME280;57495;49.922;7.966;2022-09-29T07:18:32;98569.00;;;6.70;95.19
70133;BME280;57495;49.922;7.966;2022-09-29T07:20:34;98575.59;;;6.84;94.67
70133;BME280;57495;49.922;7.966;2022-09-29T07:22:36;98575.88;;;6.99;94.93
70133;BME280;57495;49.922;7.966;2022-09-29T07:24:37;98573.84;;;7.19;94.55
70133;BME280;57495;49.922;7.966;2022-09-29T07:26:39;98569.06;;;7.30;93.75
70133;BME280;57495;49.922;7.966;2022-09-29T07:28:40;98568.38;;;7.20;94.16
70133;BME280;57495;49.922;7.966;2022-09-29T07:30:44;98568.63;;;7.43;94.23
70133;BME280;57495;49.922;7.966;2022-09-29T07:32:45;98574.03;;;7.60;92.10
70133;BME280;57495;49.922;7.966;2022-09-29T07:34:46;98577.28;;;7.88;91.89
70133;BME280;57495;49.922;7.966;2022-09-29T07:36:48;98582.22;;;8.17;91.71
70133;BME280;57495;49.922;7.966;2022-09-29T07:38:50;98585.28;;;8.47;90.47
70133;BME280;57495;49.922;7.966;2022-09-29T07:40:52;98582.31;;;8.66;89.75
70133;BME280;57495;49.922;7.966;2022-09-29T07:42:53;98577.13;;;8.73;89.40
70133;BME280;57495;49.922;7.966;2022-09-29T07:44:55;98568.78;;;8.93;87.23
70133;BME280;57495;49.922;7.966;2022-09-29T07:46:58;98575.94;;;9.17;86.24
70133;BME280;57495;49.922;7.966;2022-09-29T07:49:00;98586.19;;;9.36;85.29
70133;BME280;57495;49.922;7.966;2022-09-29T07:51:03;98582.88;;;9.42;86.22
70133;BME280;57495;49.922;7.966;2022-09-29T07:53:05;98589.88;;;9.27;86.12
70133;BME280;57495;49.922;7.966;2022-09-29T07:55:07;98595.09;;;9.20;85.67
70133;BME280;57495;49.922;7.966;2022-09-29T07:57:09;98590.91;;;9.18;84.65
70133;BME280;57495;49.922;7.966;2022-09-29T07:59:10;98592.38;;;9.28;83.69
70133;BME280;57495;49.922;7.966;2022-09-29T08:01:12;98600.22;;;9.30;84.01
70133;BME280;57495;49.922;7.966;2022-09-29T08:03:16;98594.41;;;9.26;83.35
70133;BME280;57495;49.922;7.966;2022-09-29T08:05:17;98593.72;;;9.33;82.83
70133;BME280;57495;49.922;7.966;2022-09-29T08:07:19;98592.03;;;9.48;82.84
70133;BME280;57495;49.922;7.966;2022-09-29T08:09:20;98595.13;;;9.68;84.83
70133;BME280;57495;49.922;7.966;2022-09-29T08:11:22;98598.47;;;9.62;81.87
70133;BME280;57495;49.922;7.966;2022-09-29T08:13:23;98599.13;;;9.72;82.12
70133;BME280;57495;49.922;7.966;2022-09-29T08:15:25;98596.28;;;9.74;82.93
70133;BME280;57495;49.922;7.966;2022-09-29T08:17:26;98599.44;;;9.69;82.28
70133;BME280;57495;49.922;7.966;2022-09-29T08:19:29;98596.94;;;9.67;82.03
70133;BME280;57495;49.922;7.966;2022-09-29T08:21:31;98594.59;;;9.81;81.75
70133;BME280;57495;49.922;7.966;2022-09-29T08:23:36;98598.69;;;9.92;80.57
70133;BME280;57495;49.922;7.966;2022-09-29T08:25:38;98599.25;;;9.79;84.47
70133;BME280;57495;49.922;7.966;2022-09-29T08:27:39;98603.53;;;9.96;82.16
70133;BME280;57495;49.922;7.966;2022-09-29T08:29:40;98612.53;;;9.95;84.66
70133;BME280;57495;49.922;7.966;2022-09-29T08:31:42;98611.47;;;9.65;83.18
70133;BME280;57495;49.922;7.966;2022-09-29T08:33:43;98613.97;;;9.66;83.61
70133;BME280;57495;49.922;7.966;2022-09-29T08:35:54;98625.16;;;9.62;86.56
70133;BME280;57495;49.922;7.966;2022-09-29T08:37:55;98630.84;;;9.59;84.72
70133;BME280;57495;49.922;7.966;2022-09-29T08:39:58;98626.47;;;9.66;85.65
70133;BME280;57495;49.922;7.966;2022-09-29T08:42:04;98626.41;;;9.82;86.25
70133;BME280;57495;49.922;7.966;2022-09-29T08:44:13;98622.88;;;9.90;86.64
70133;BME280;57495;49.922;7.966;2022-09-29T08:46:22;98620.03;;;9.92;82.57
70133;BME280;57495;49.922;7.966;2022-09-29T08:48:30;98622.44;;;9.78;83.04
70133;BME280;57495;49.922;7.966;2022-09-29T08:50:34;98627.53;;;9.48;84.13
70133;BME280;57495;49.922;7.966;2022-09-29T08:52:40;98623.63;;;9.76;85.26
70133;BME280;57495;49.922;7.966;2022-09-29T08:54:44;98626.72;;;9.96;85.82
70133;BME280;57495;49.922;7.966;2022-09-29T08:56:46;98623.19;;;10.03;85.76
70133;BME280;57495;49.922;7.966;2022-09-29T08:58:48;98614.53;;;10.24;84.22
70133;BME280;57495;49.922;7.966;2022-09-29T09:00:58;98622.22;;;10.28;84.23
70133;BME280;57495;49.922;7.966;2022-09-29T09:03:40;98620.88;;;10.32;85.59
70133;BME280;57495;49.922;7.966;2022-09-29T09:05:59;98629.69;;;10.63;86.33
70133;BME280;57495;49.922;7.966;2022-09-29T09:08:14;98624.97;;;10.74;84.59
70133;BME280;57495;49.922;7.966;2022-09-29T09:10:26;98624.78;;;10.75;84.82
70133;BME280;57495;49.922;7.966;2022-09-29T09:12:49;98625.91;;;10.81;84.13
70133;BME280;57495;49.922;7.966;2022-09-29T09:15:13;98631.84;;;10.91;85.39
70133;BME280;57495;49.922;7.966;2022-09-29T09:17:25;98632.88;;;10.90;83.69
70133;BME280;57495;49.922;7.966;2022-09-29T09:19:35;98637.69;;;11.10;84.90
70133;BME280;57495;49.922;7.966;2022-09-29T09:21:42;98640.72;;;11.07;84.45
70133;BME280;57495;49.922;7.966;2022-09-29T09:23:52;98636.88;;;11.09;84.15
70133;BME280;57495;49.922;7.966;2022-09-29T09:25:57;98638.72;;;11.09;81.97
70133;BME280;57495;49.922;7.966;2022-09-29T09:28:04;98640.88;;;10.67;83.01
70133;BME280;57495;49.922;7.966;2022-09-29T09:30:12;98641.06;;;10.89;82.99
70133;BME280;57495;49.922;7.966;2022-09-29T09:32:18;98649.31;;;10.79;81.66
70133;BME280;57495;49.922;7.966;2022-09-29T09:34:27;98640.81;;;10.98;82.86
70133;BME280;57495;49.922;7.966;2022-09-29T09:36:34;98640.84;;;11.13;80.80
70133;BME280;57495;49.922;7.966;2022-09-29T09:38:43;98634.59;;;11.21;80.51
70133;BME280;57495;49.922;7.966;2022-09-29T09:40:49;98639.19;;;11.12;82.12
70133;BME280;57495;49.922;7.966;2022-09-29T09:42:59;98636.38;;;11.44;82.23
70133;BME280;57495;49.922;7.966;2022-09-29T09:45:05;98640.53;;;11.46;80.65
70133;BME280;57495;49.922;7.966;2022-09-29T09:47:20;98643.03;;;11.48;82.08
70133;BME280;57495;49.922;7.966;2022-09-29T09:49:26;98640.09;;;11.43;81.06
70133;BME280;57495;49.922;7.966;2022-09-29T09:51:44;98642.00;;;11.49;80.90
70133;BME280;57495;49.922;7.966;2022-09-29T09:53:47;98638.16;;;11.51;81.24
70133;BME280;57495;49.922;7.966;2022-09-29T09:56:00;98644.31;;;10.99;81.66
70133;BME280;57495;49.922;7.966;2022-09-29T09:58:17;98642.06;;;11.11;80.55
70133;BME280;57495;49.922;7.966;2022-09-29T10:00:24;98644.00;;;11.17;80.24
70133;BME280;57495;49.922;7.966;2022-09-29T10:02:28;98648.78;;;11.21;80.82
70133;BME280;57495;49.922;7.966;2022-09-29T10:04:31;98648.72;;;11.30;80.32
70133;BME280;57495;49.922;7.966;2022-09-29T10:06:33;98649.78;;;11.06;83.38
70133;BME280;57495;49.922;7.966;2022-09-29T10:08:36;98647.25;;;11.27;79.84
70133;BME280;57495;49.922;7.966;2022-09-29T10:10:39;98645.34;;;11.51;79.98
70133;BME280;57495;49.922;7.966;2022-09-29T10:12:43;98645.28;;;11.59;79.61
70133;BME280;57495;49.922;7.966;2022-09-29T10:14:50;98651.63;;;11.88;79.69
70133;BME280;57495;49.922;7.966;2022-09-29T10:16:55;98644.50;;;12.25;77.47
70133;BME280;57495;49.922;7.966;2022-09-29T10:18:58;98644.00;;;12.14;78.02
70133;BME280;57495;49.922;7.966;2022-09-29T10:20:59;98643.63;;;12.54;78.53
70133;BME280;57495;49.922;7.966;2022-09-29T10:23:24;98645.28;;;12.76;77.65
70133;BME280;57495;49.922;7.966;2022-09-29T10:25:25;98653.03;;;12.65;74.16
70133;BME280;57495;49.922;7.966;2022-09-29T10:27:27;98645.78;;;13.08;73.59
70133;BME280;57495;49.922;7.966;2022-09-29T10:29:35;98641.50;;;13.36;75.82
70133;BME280;57495;49.922;7.966;2022-09-29T10:31:38;98645.06;;;13.21;74.01
70133;BME280;57495;49.922;7.966;2022-09-29T10:33:45;98637.81;;;13.37;73.65
70133;BME280;57495;49.922;7.966;2022-09-29T10:35:48;98647.06;;;13.62;71.41
70133;BME280;57495;49.922;7.966;2022-09-29T10:37:59;98653.63;;;13.53;69.11
70133;BME280;57495;49.922;7.966;2022-09-29T10:40:11;98651.03;;;13.38;69.31
70133;BME280;57495;49.922;7.966;2022-09-29T10:42:21;98648.88;;;13.55;69.49
70133;BME280;57495;49.922;7.966;2022-09-29T10:44:30;98647.47;;;13.59;70.86
70133;BME280;57495;49.922;7.966;2022-09-29T10:46:47;98647.31;;;13.39;68.85
70133;BME280;57495;49.922;7.966;2022-09-29T10:49:07;98646.13;;;13.48;68.13
70133;BME280;57495;49.922;7.966;2022-09-29T10:51:18;98646.63;;;13.30;70.63
70133;BME280;57495;49.922;7.966;2022-09-29T10:53:29;98651.66;;;13.19;69.17
70133;BME280;57495;49.922;7.966;2022-09-29T10:55:33;98642.75;;;13.40;67.93
70133;BME280;57495;49.922;7.966;2022-09-29T10:57:37;98648.28;;;13.31;70.03
70133;BME280;57495;49.922;7.966;2022-09-29T10:59:45;98651.13;;;13.30;67.23
70133;BME280;57495;49.922;7.966;2022-09-29T11:01:50;98642.72;;;13.33;66.33
70133;BME280;57495;49.922;7.966;2022-09-29T11:03:55;98653.28;;;13.34;67.94
70133;BME280;57495;49.922;7.966;2022-09-29T11:06:03;98650.19;;;13.38;68.42
70133;BME280;57495;49.922;7.966;2022-09-29T11:08:10;98645.97;;;13.85;68.48